• Join FlightAware (Why Join?)
  • Login
  • US Flag 
11:14PM EDT


 

Airport Tracker/Info


-or-


 

Live Flight TrackerFlight Track Log ✈ AAL1358 ✈ 25.04.2013 ✈ KORD - KBOS

Flight Track Log - Related Links

Times and Time Zones

All times are in EDT time to prevent confusion due to time zone crossing. See the AAL1358 flight status page for this flight to view local times or setup timezone preferences in your user account.

Time Position Orientation Groundspeed Altitude Reporting Facility
EDT Latitude Longitude Course Direction KTS MPH feet Rate Location/Type
11:55PM 42.0167 -87.9333 85° East 194 223 2,200  Level Chicago TRACON
11:56PM 42.0500 -88.0000 304° West 246 283 4,300 2,820 Climbing Chicago TRACON
11:57PM 42.1433 -87.4352 64° Northeast  Level FlightAware Approximate
11:58PM 42.1979 -87.2732 66° East  Level FlightAware Approximate
11:58PM 42.1389 -87.8358 54° Northeast 299 344 11,700  Level Chicago Center
11:59PM 42.2541 -87.1126 75° East  Level FlightAware Approximate
11:59PM 42.1583 -87.7169 78° East 320 368 14,100  Level Chicago Center
12:00AM 42.2738 -86.9371 85° East  Level FlightAware Approximate
12:00AM 42.1492 -87.5764 95° East 373 429 16,600  Level Chicago Center
12:01AM 42.1594 -87.3994 85° East 403 464 19,300 2,520 Climbing Chicago Center
12:02AM 42.2083 -87.2625 64° Northeast 406 467 21,700 1,920 Climbing Chicago Center
12:03AM 42.2478 -87.1097 71° East 442 509 23,200 1,620 Climbing Chicago Center
12:04AM 42.2644 -86.9372 83° East 467 537 25,000 1,860 Climbing Chicago Center
12:05AM 42.2736 -86.7589 86° East 482 555 27,000 1,980 Climbing Chicago Center
12:06AM 42.2714 -86.5836 91° East 482 555 29,000 1,440 Climbing Chicago Center
12:07AM 42.2667 -86.4000 92° East 489 563 30,000 1,260 Climbing Chicago Center
12:08AM 42.2642 -86.2108 91° East 500 575 31,600 1,560 Climbing Chicago Center
12:09AM 42.2611 -86.0219 91° East 503 579 33,200 1,440 Climbing Chicago Center
12:10AM 42.2581 -85.8508 91° East 501 577 34,600 1,320 Climbing Chicago Center
12:11AM 42.2667 -85.6294 87° East 498 573 35,900 1,080 Climbing Chicago Center
12:12AM 42.2844 -85.4442 83° East 502 578 36,800 540 Climbing Chicago Center
12:13AM 42.3000 -85.2581 83° East 503 579 37,000 60 Climbing Chicago Center
12:14AM 42.3206 -85.0714 81° East 490 564 37,000  Level Cleveland Center
12:15AM 42.3358 -84.8842 84° East 502 578 37,000  Level Cleveland Center
12:16AM 42.3511 -84.6969 84° East 502 578 37,000  Level Cleveland Center
12:17AM 42.3644 -84.4925 85° East 497 572 37,000  Level Cleveland Center
12:18AM 42.3789 -84.3106 84° East 497 572 37,000 -180 Level Cleveland Center
12:19AM 42.3953 -84.1258 83° East 497 572 36,700 -600 Descending Cleveland Center
12:20AM 42.4092 -83.9383 84° East 497 572 35,900 -900 Descending Cleveland Center
12:21AM 42.4247 -83.7533 83° East 497 572 35,000 -480 Descending Cleveland Center
12:22AM 42.4381 -83.5683 84° East 497 572 35,000  Level Cleveland Center
12:23AM 42.4508 -83.4000 84° East 497 572 35,000  Level Cleveland Center
12:24AM 42.4633 -83.2150 85° East 497 572 35,000  Level Cleveland Center
12:25AM 42.4758 -83.0353 85° East 497 572 35,000  Level Cleveland Center
12:26AM 42.4878 -82.8556 85° East 490 564 35,000  Level Cleveland Center
12:27AM 42.4994 -82.6756 85° East 480 552 35,000  Level Cleveland Center
12:28AM 42.5131 -82.4986 84° East 480 552 35,000  Level Cleveland Center
12:29AM 42.5242 -82.3158 85° East 480 552 35,000  Level Cleveland Center
12:30AM 42.5353 -82.1331 85° East 480 552 35,000  Level Cleveland Center
12:31AM 42.5439 -81.9500 86° East 480 552 35,000  Level Cleveland Center
12:32AM 42.5586 -81.7472 84° East 487 560 35,000  Level Cleveland Center
12:33AM 42.5706 -81.5642 85° East 484 557 35,000  Level Cleveland Center
12:34AM 42.5803 -81.3783 86° East 484 557 35,000  Level Cleveland Center
12:35AM 42.5900 -81.1953 86° East 484 557 35,000  Level Cleveland Center
12:36AM 42.5989 -81.0261 86° East 494 568 35,000  Level Cleveland Center
12:37AM 42.6078 -80.8369 86° East 499 574 35,000  Level Cleveland Center
12:38AM 42.6186 -80.6508 85° East 499 574 35,000  Level Cleveland Center
12:39AM 42.6269 -80.4647 86° East 499 574 35,000  Level Cleveland Center
12:40AM 42.6328 -80.2783 88° East 498 573 35,000  Level Cleveland Center
12:41AM 42.6425 -80.0950 86° East 498 573 35,000  Level Cleveland Center
12:42AM 42.6583 -79.8886 84° East 499 574 35,000  Level Cleveland Center
12:43AM 42.6653 -79.7081 87° East 493 567 35,000  Level Cleveland Center
12:44AM 42.6722 -79.5242 87° East 488 562 35,000  Level Cleveland Center
12:45AM 42.6767 -79.3433 88° East 476 548 35,000  Level Cleveland Center
12:46AM 42.6850 -79.1653 86° East 481 554 35,000  Level Cleveland Center
12:47AM 42.6889 -78.9817 88° East 481 554 35,000  Level Cleveland Center
12:48AM 42.6967 -78.7978 87° East 481 554 35,000  Level Cleveland Center
12:49AM 42.7019 -78.6139 88° East 481 554 35,000  Level Cleveland Center
12:50AM 42.7069 -78.4303 88° East 481 554 35,000  Level Cleveland Center
12:51AM 42.7117 -78.2464 88° East 481 554 35,000  Level Cleveland Center
12:52AM 42.7161 -78.0653 88° East 481 554 35,000  Level Cleveland Center
12:53AM 42.7225 -77.8814 87° East 481 554 35,000  Level Cleveland Center
12:54AM 42.7222 -77.7003 90° East 481 554 35,000  Level Cleveland Center
12:56AM 42.7306 -77.3875 88° East 458 527 35,000  Level Boston Center
12:57AM 42.7342 -77.2042 88° East 465 535 35,000  Level Boston Center
12:58AM 42.7375 -77.0233 89° East 472 543 35,000  Level Boston Center
12:59AM 42.7406 -76.8397 89° East 477 549 35,000  Level Boston Center
01:00AM 42.7433 -76.6561 89° East 477 549 35,000  Level Boston Center
01:01AM 42.7394 -76.4719 92° East 477 549 35,000  Level Boston Center
01:02AM 42.7353 -76.2906 92° East 477 549 35,000  Level Boston Center
01:03AM 42.7308 -76.1094 92° East 477 549 35,000  Level Boston Center
01:04AM 42.7239 -75.9336 93° East 477 549 35,000 -60 Level Boston Center
01:05AM 42.7194 -75.7356 92° East 477 549 34,900  Descending Boston Center
01:06AM 42.7139 -75.5600 92° East 477 549 35,000  Climbing Boston Center
01:07AM 42.7050 -75.3475 93° East 477 549 34,900  Descending Boston Center
01:08AM 42.6992 -75.1664 92° East 477 549 35,000  Climbing Boston Center
01:09AM 42.6928 -74.9853 93° East 477 549 35,000 -60 Level Boston Center
01:10AM 42.6864 -74.8072 93° East 477 549 34,900  Descending Boston Center
01:11AM 42.6775 -74.6203 94° East 483 556 35,000  Climbing Boston Center
01:12AM 42.6683 -74.4392 94° East 483 556 34,900 -60 Descending Boston Center
01:13AM 42.6608 -74.2583 93° East 483 556 34,900  Level Boston Center
01:14AM 42.6492 -74.0772 95° East 483 556 35,000  Climbing Boston Center
01:15AM 42.6411 -73.8908 93° East 483 556 35,000  Level Boston Center
01:16AM 42.6350 -73.7100 93° East 483 556 35,000  Level Boston Center
01:17AM 42.6244 -73.5264 94° East 483 556 35,000  Level Boston Center
01:18AM 42.6156 -73.3456 94° East 483 556 35,000 -1,440 Level Boston Center
01:19AM 42.6064 -73.1678 94° East 483 556 32,200 -2,940 Descending Boston Center
01:20AM 42.5950 -72.9731 94° East 494 568 29,200 -2,880 Descending Boston Center
01:21AM 42.5833 -72.8011 95° East 484 557 26,500 -2,460 Descending Boston Center
01:22AM 42.5753 -72.6347 94° East 463 533 24,300 -2,580 Descending Boston Center
01:23AM 42.5650 -72.4822 95° East 432 497 21,400 -2,700 Descending Boston Center
01:24AM 42.5547 -72.3500 96° East 403 464 18,900 -2,820 Descending Boston Center
01:25AM 42.5419 -72.1808 96° East 403 464 15,800 -2,820 Descending Boston Center
01:26AM 42.5331 -72.0428 95° East 406 467 13,300 -2,100 Descending Boston Center
01:27AM 42.5219 -71.8850 95° East 395 455 11,600 -1,200 Descending Boston Center
01:28AM 42.5153 -71.7725 95° East 355 409 10,900 -300 Descending Boston Center
01:29AM 42.5061 -71.6517 96° East 312 359 11,000 60 Climbing Boston Center
01:30AM 42.5000 -71.6000 99° East 297 342 11,000  Level KA90
01:31AM 42.5000 -71.4833 90° East 299 344 11,000  Level KA90
01:32AM 42.4833 -71.3667 101° East 300 345 11,000 -600 Level KA90
01:33AM 42.4667 -71.2500 101° East 300 345 9,900 -1,320 Descending KA90
01:34AM 42.4667 -71.1500 90° East 294 338 8,400 -1,680 Descending KA90
01:35AM 42.4500 -71.0500 103° East 284 327 6,600 -1,560 Descending KA90
01:36AM 42.4500 -70.9333 90° East 271 312 5,300 -1,380 Descending KA90
01:37AM 42.4333 -70.8500 105° East 270 311 3,900 -1,080 Descending KA90
01:37AM 42.4078 -70.8372 160° South 234 269 3,700 -900 Descending Boston Center
01:38AM 42.3367 -70.8222 171° South 205 236 2,600 -960 Descending Boston Center
01:39AM 42.3106 -70.8847 241° Southwest 140 161 1,800 -900 Descending Boston Center
01:40AM 42.3167 -70.9167 285° West 173 199 1,300 -900 Descending KA90
01:41AM 42.3333 -70.9667 294° West 144 166 500 -840 Descending KA90